Accueil
METAR-TAF:

METAR-TAF

Aéroports :

Aéroport de Kagoshima

Kagoshima, Japon

latitude: 31-48N, longitude: 130-43E, altitude: 272 m

Observation

Le bulletin a été fait il y a 5 heures et 57 minutes, à 12:00 UTC
Vent 2 kt de direction variable
Température 9°C
Humidité 87%
Pression 1019 hPa
Visibilité 10 km ou plus
Quelques nuages à une hauteur de 2000 ft

METAR: RJFK 191200Z VRB02KT 9999 FEW020 09/07 Q1019 RMK 1CU020 A3010

Heure: 02:57 (17:57 UTC)

Prévision

Le bulletin a été fait il y a 47 minutes, à 17:10 UTC
Prévision valable du 19 à 18 UTC au 21 à 00 UTC
Vent 8 kt de nord
Visibilité 10 km ou plus
Quelques nuages à une hauteur de 4000 ft
Evoluant progressivement
du 20 à 15 UTC au 20 à 18 UTC
Vent 5 kt de est/nord-est

TAF: RJFK 191710Z 1918/2100 35008KT 9999 FEW040 BECMG 2015/2018 07005KT

Observations et prévisions météorologiques de plus de 4000 aéroports (messages METAR et TAF).

Les stations disponibles sont représentées par des disques jaunes et rouges sur la carte.

Passer la souris dessus pour voir le nom de la station.

Cliquer dessus pour voir les observations et prévisions météorologiques.

Pour changer de carte: cliquez sur les boutons verts avec une croix noire pour zoomer, sur le bouton vert avec un tiret pour effectuer un zoom arrière, ou sur les flèches vertes pour les cartes adjacentes.


METAR-TAF: